createdAt,value
2018-12-08T00:00:06.393Z,26.43
2018-12-08T00:02:41.182Z,26.27
2018-12-08T00:05:14.163Z,26.90
2018-12-08T00:07:50.295Z,26.87
2018-12-08T00:10:23.288Z,26.37
2018-12-08T00:12:55.267Z,26.57
2018-12-08T00:15:31.130Z,28.43
2018-12-08T00:18:03.259Z,26.37
2018-12-08T00:20:38.204Z,26.43
2018-12-08T00:23:13.679Z,27.53
2018-12-08T00:25:49.414Z,25.87
2018-12-08T00:28:24.334Z,27.83
2018-12-08T00:31:11.987Z,27.27
2018-12-08T00:33:47.305Z,29.03
2018-12-08T00:36:24.480Z,26.77
2018-12-08T00:38:56.683Z,27.60
2018-12-08T00:44:29.830Z,26.67
2018-12-08T00:47:01.907Z,28.20
2018-12-08T00:49:34.192Z,27.03
2018-12-08T00:52:09.991Z,27.10
2018-12-08T00:54:45.381Z,27.00
2018-12-08T00:57:17.735Z,27.93
2018-12-08T00:59:52.578Z,27.40
2018-12-08T01:02:27.367Z,27.57
2018-12-08T01:05:00.910Z,26.77
2018-12-08T01:07:36.015Z,26.40
2018-12-08T01:10:10.687Z,27.17
2018-12-08T01:12:43.523Z,27.20
2018-12-08T01:15:18.530Z,27.03
2018-12-08T01:17:53.381Z,25.67
2018-12-08T01:20:26.208Z,25.50
2018-12-08T01:23:01.362Z,27.97
2018-12-08T01:25:36.433Z,25.20
2018-12-08T01:28:15.368Z,26.17
2018-12-08T01:30:47.820Z,26.13
2018-12-08T01:33:23.560Z,23.43
2018-12-08T01:35:56.084Z,26.07
2018-12-08T01:38:28.152Z,25.63
2018-12-08T01:41:00.559Z,24.40
2018-12-08T01:46:51.306Z,26.70
2018-12-08T01:52:27.602Z,26.87
2018-12-08T01:54:59.733Z,25.90
2018-12-08T01:57:31.980Z,27.10
2018-12-08T02:00:07.668Z,27.83
2018-12-08T02:02:44.901Z,28.57
2018-12-08T02:05:17.972Z,28.03
2018-12-08T02:07:51.812Z,27.90
2018-12-08T02:10:27.483Z,27.73
2018-12-08T02:13:03.172Z,27.80
2018-12-08T02:15:46.075Z,27.60
2018-12-08T02:18:17.916Z,28.07
2018-12-08T02:20:53.596Z,28.00
2018-12-08T02:23:30.631Z,29.27
2018-12-08T02:26:03.055Z,28.70
2018-12-08T02:28:39.299Z,27.70
2018-12-08T02:31:11.522Z,30.30
2018-12-08T02:33:46.369Z,30.07
2018-12-08T02:36:21.489Z,28.77
2018-12-08T02:38:53.834Z,28.40
2018-12-08T02:41:28.682Z,27.50
2018-12-08T02:44:04.682Z,29.30
2018-12-08T02:46:43.028Z,28.83
2018-12-08T02:49:15.555Z,30.60
2018-12-08T02:51:54.945Z,28.80
2018-12-08T02:54:27.614Z,29.83
2018-12-08T02:56:59.600Z,29.80
2018-12-08T02:59:32.221Z,28.43
2018-12-08T03:02:07.735Z,30.03
2018-12-08T03:04:43.061Z,29.33
2018-12-08T03:07:15.085Z,28.00
2018-12-08T03:09:51.010Z,29.40
2018-12-08T03:12:23.295Z,30.63
2018-12-08T03:14:56.362Z,31.60
2018-12-08T03:17:31.530Z,29.17
2018-12-08T03:20:07.161Z,30.13
2018-12-08T03:22:41.830Z,28.80
2018-12-08T03:25:14.442Z,30.27
2018-12-08T03:38:07.484Z,31.97
2018-12-08T03:40:39.595Z,30.80
2018-12-08T03:43:14.455Z,30.40
2018-12-08T03:45:51.589Z,31.00
2018-12-08T03:48:27.090Z,30.63
2018-12-08T03:51:02.662Z,31.13
2018-12-08T03:53:38.565Z,29.93
2018-12-08T03:56:11.137Z,30.47
2018-12-08T03:58:45.738Z,27.77
2018-12-08T04:01:22.015Z,29.47
2018-12-08T04:03:55.604Z,28.30
2018-12-08T04:06:31.988Z,30.47
2018-12-08T04:09:06.905Z,29.03
2018-12-08T04:11:42.847Z,29.13
2018-12-08T04:14:18.411Z,29.33
2018-12-08T04:16:53.726Z,28.70
2018-12-08T04:19:37.533Z,29.10
2018-12-08T04:22:09.786Z,28.80
2018-12-08T04:24:42.442Z,28.27
2018-12-08T04:27:14.886Z,27.07
2018-12-08T04:29:53.369Z,28.93
2018-12-08T04:32:25.631Z,28.53
2018-12-08T04:35:00.333Z,27.87
2018-12-08T04:37:35.361Z,27.13
2018-12-08T04:40:11.135Z,28.40
2018-12-08T04:42:42.994Z,27.17
2018-12-08T04:45:26.624Z,26.37
2018-12-08T04:48:02.150Z,27.27
2018-12-08T04:50:34.300Z,29.43
2018-12-08T04:53:08.913Z,28.30
2018-12-08T04:55:47.024Z,29.53
2018-12-08T04:58:19.295Z,26.97
2018-12-08T05:00:51.671Z,29.17
2018-12-08T05:03:26.244Z,29.33
2018-12-08T05:05:59.001Z,26.63
2018-12-08T05:08:31.541Z,29.80
2018-12-08T05:11:03.764Z,28.47
2018-12-08T05:13:38.566Z,28.97
2018-12-08T05:16:11.131Z,26.43
2018-12-08T05:18:45.984Z,29.53
2018-12-08T05:21:18.878Z,31.17
2018-12-08T05:23:54.208Z,29.53
2018-12-08T05:26:26.775Z,32.53
2018-12-08T05:28:58.825Z,30.07
2018-12-08T05:31:30.901Z,28.67
2018-12-08T05:34:02.996Z,29.63
2018-12-08T05:36:36.061Z,30.03
2018-12-08T05:39:12.159Z,27.97
2018-12-08T05:41:44.831Z,28.77
2018-12-08T05:44:17.004Z,29.63
2018-12-08T05:46:55.678Z,28.47
2018-12-08T05:49:28.059Z,30.27
2018-12-08T05:52:03.080Z,29.40
2018-12-08T05:54:37.856Z,30.67
2018-12-08T05:57:14.507Z,28.37
2018-12-08T05:59:49.792Z,28.90
2018-12-08T06:02:22.887Z,28.73
2018-12-08T06:05:00.605Z,29.40
2018-12-08T06:07:33.354Z,28.20
2018-12-08T06:10:06.155Z,28.33
2018-12-08T06:12:41.646Z,29.90
2018-12-08T06:15:14.178Z,29.83
2018-12-08T06:17:49.050Z,28.80
2018-12-08T06:20:21.402Z,28.73
2018-12-08T06:22:54.224Z,28.53
2018-12-08T06:25:29.375Z,29.70
2018-12-08T06:28:08.063Z,29.67
2018-12-08T06:30:43.002Z,27.97
2018-12-08T06:33:18.098Z,27.50
2018-12-08T06:35:50.482Z,28.57
2018-12-08T06:38:27.758Z,28.13
2018-12-08T06:41:02.630Z,28.27
2018-12-08T06:43:37.913Z,28.73
2018-12-08T06:46:10.261Z,26.67
2018-12-08T06:48:45.184Z,31.97
2018-12-08T06:51:20.444Z,28.80
2018-12-08T06:53:55.816Z,30.57
2018-12-08T06:56:30.762Z,29.80
2018-12-08T06:59:06.158Z,29.27
2018-12-08T07:01:40.995Z,29.23
2018-12-08T07:04:16.304Z,30.20
2018-12-08T07:06:48.729Z,29.67
2018-12-08T07:09:20.772Z,29.80
2018-12-08T07:11:52.699Z,29.83
2018-12-08T07:14:24.710Z,30.63
2018-12-08T07:16:57.232Z,31.43
2018-12-08T07:19:30.936Z,30.43
2018-12-08T07:22:05.518Z,31.10
2018-12-08T07:24:38.018Z,32.40
2018-12-08T07:27:09.828Z,32.17
2018-12-08T07:29:48.476Z,31.67
2018-12-08T07:32:24.286Z,32.80
2018-12-08T07:34:58.573Z,32.13
2018-12-08T07:37:33.994Z,32.13
2018-12-08T07:40:07.847Z,32.93
2018-12-08T07:42:42.965Z,31.97
2018-12-08T07:45:19.061Z,30.10
2018-12-08T07:47:51.549Z,31.13
2018-12-08T07:50:28.344Z,29.93
2018-12-08T07:53:00.867Z,31.17
2018-12-08T07:55:33.294Z,31.33
2018-12-08T07:58:08.774Z,32.30
2018-12-08T08:00:44.912Z,32.47
2018-12-08T08:03:17.813Z,32.03
2018-12-08T08:05:55.038Z,31.03
2018-12-08T08:08:30.395Z,32.63
2018-12-08T08:11:03.013Z,30.37
2018-12-08T08:13:37.783Z,28.33
2018-12-08T08:16:10.346Z,28.50
2018-12-08T08:18:42.893Z,28.73
2018-12-08T08:21:22.251Z,28.37
2018-12-08T08:23:57.607Z,26.77
2018-12-08T08:26:36.631Z,29.33
2018-12-08T08:29:08.754Z,28.07
2018-12-08T08:31:50.252Z,28.70
2018-12-08T08:34:22.807Z,29.43
2018-12-08T08:36:58.167Z,29.80
2018-12-08T08:39:34.232Z,29.70
2018-12-08T08:42:09.330Z,28.23
2018-12-08T08:44:44.242Z,29.97
2018-12-08T08:47:19.339Z,30.10
2018-12-08T08:49:56.607Z,30.80
2018-12-08T08:52:31.309Z,32.60
2018-12-08T08:55:06.519Z,32.03
2018-12-08T08:57:42.732Z,32.73
2018-12-08T09:00:14.753Z,34.57
2018-12-08T09:02:47.001Z,37.47
2018-12-08T09:05:21.730Z,34.90
2018-12-08T09:07:56.919Z,34.63
2018-12-08T09:10:30.147Z,36.43
2018-12-08T09:13:05.416Z,36.97
2018-12-08T09:15:40.498Z,34.93
2018-12-08T09:18:12.982Z,37.53
2018-12-08T09:20:47.966Z,34.43
2018-12-08T09:23:22.838Z,34.77
2018-12-08T09:25:55.521Z,35.50
2018-12-08T09:28:28.740Z,33.50
2018-12-08T09:31:04.307Z,33.40
2018-12-08T09:33:36.876Z,32.37
2018-12-08T09:36:08.720Z,33.93
2018-12-08T09:38:44.355Z,35.97
2018-12-08T09:41:19.563Z,34.70
2018-12-08T09:43:55.206Z,34.17
2018-12-08T09:46:27.395Z,31.97
2018-12-08T09:49:04.504Z,32.43
2018-12-08T09:51:37.543Z,33.53
2018-12-08T09:54:09.499Z,34.10
2018-12-08T09:56:45.648Z,33.33
2018-12-08T09:59:17.898Z,34.23
2018-12-08T10:04:27.717Z,33.93
2018-12-08T10:07:02.797Z,33.13
2018-12-08T10:09:37.583Z,34.63
2018-12-08T10:12:16.500Z,35.77
2018-12-08T10:14:51.987Z,37.07
2018-12-08T10:17:27.512Z,38.47
2018-12-08T10:20:02.439Z,36.07
2018-12-08T10:22:37.290Z,35.50
2018-12-08T10:25:12.197Z,35.83
2018-12-08T10:27:47.278Z,33.80
2018-12-08T10:30:22.714Z,32.27
2018-12-08T10:32:57.608Z,33.27
2018-12-08T10:35:34.749Z,32.87
2018-12-08T10:38:09.898Z,30.57
2018-12-08T10:40:44.951Z,31.07
2018-12-08T10:43:19.942Z,29.37
2018-12-08T10:45:55.200Z,29.23
2018-12-08T10:48:27.578Z,20.90
2018-12-08T10:51:02.334Z,26.30
2018-12-08T10:53:37.302Z,26.87
2018-12-08T10:56:12.523Z,27.20
2018-12-08T10:58:47.500Z,27.50
2018-12-08T11:01:22.203Z,27.97
2018-12-08T11:03:58.162Z,28.33
2018-12-08T11:06:30.316Z,25.67
2018-12-08T11:09:08.847Z,23.43
2018-12-08T11:32:14.078Z,18.73
2018-12-08T11:34:49.459Z,18.90
2018-12-08T11:37:22.000Z,22.43
2018-12-08T11:39:56.982Z,21.13
2018-12-08T11:42:29.355Z,20.30
2018-12-08T11:45:05.755Z,19.27
2018-12-08T11:47:41.106Z,19.23
2018-12-08T11:50:16.679Z,18.60
2018-12-08T11:52:52.729Z,17.93
2018-12-08T11:55:30.353Z,15.03
2018-12-08T11:58:03.451Z,13.47
2018-12-08T12:00:39.001Z,13.80
2018-12-08T12:03:15.622Z,14.10
2018-12-08T12:05:47.851Z,12.77
2018-12-08T12:08:22.650Z,13.27
2018-12-08T12:10:57.365Z,14.20
2018-12-08T12:13:34.934Z,15.30
2018-12-08T12:16:10.270Z,14.37
2018-12-08T12:18:45.375Z,14.33
2018-12-08T12:21:17.645Z,14.20
2018-12-08T12:23:49.760Z,15.00
2018-12-08T12:26:24.890Z,14.97
2018-12-08T12:28:59.675Z,13.80
2018-12-08T12:31:34.375Z,12.67
2018-12-08T12:52:35.849Z,12.83
2018-12-08T12:55:10.967Z,10.27
2018-12-08T12:57:46.109Z,9.37
2018-12-08T13:00:22.468Z,10.40
2018-12-08T13:02:57.401Z,9.83
2018-12-08T13:05:32.452Z,9.67
2018-12-08T13:08:07.970Z,9.80
2018-12-08T13:10:40.982Z,10.53
2018-12-08T13:13:16.684Z,10.67
2018-12-08T13:15:49.113Z,11.03
2018-12-08T13:18:21.033Z,11.20
2018-12-08T13:20:55.663Z,10.47
2018-12-08T13:23:30.597Z,11.03
2018-12-08T13:26:07.818Z,9.70
2018-12-08T13:28:39.964Z,10.90
2018-12-08T13:31:15.034Z,10.27
2018-12-08T13:33:52.324Z,9.83
2018-12-08T13:36:27.225Z,9.90
2018-12-08T13:38:59.658Z,9.67
2018-12-08T13:41:34.304Z,10.60
2018-12-08T13:44:13.514Z,9.23
2018-12-08T13:46:48.982Z,11.57
2018-12-08T13:49:23.969Z,11.80
2018-12-08T13:51:56.316Z,11.57
2018-12-08T13:54:47.434Z,11.83
2018-12-08T13:57:22.789Z,11.63
2018-12-08T13:59:55.227Z,12.23
2018-12-08T14:02:29.858Z,11.77
2018-12-08T14:05:02.228Z,12.93
2018-12-08T14:07:34.266Z,14.23
2018-12-08T14:10:15.957Z,17.23
2018-12-08T14:12:48.443Z,18.17
2018-12-08T14:15:21.236Z,18.17
2018-12-08T14:17:56.700Z,17.77
2018-12-08T14:20:33.977Z,16.73
2018-12-08T14:23:06.422Z,15.53
2018-12-08T14:25:38.478Z,15.87
2018-12-08T14:28:11.507Z,15.00
2018-12-08T14:30:48.251Z,14.87
2018-12-08T14:33:23.716Z,13.87
2018-12-08T14:35:55.833Z,13.20
2018-12-08T14:38:31.299Z,15.63
2018-12-08T14:41:07.046Z,14.67
2018-12-08T14:43:45.603Z,15.57
2018-12-08T14:46:19.939Z,15.03
2018-12-08T14:48:54.772Z,14.40
2018-12-08T14:51:27.297Z,15.20
2018-12-08T14:53:59.945Z,15.97
2018-12-08T14:56:38.291Z,16.53
2018-12-08T15:04:19.974Z,15.70
2018-12-08T15:19:46.557Z,16.57
2018-12-08T15:22:18.694Z,15.10
2018-12-08T15:24:50.677Z,14.53
2018-12-08T15:32:34.815Z,14.57
2018-12-08T15:35:09.878Z,14.87
2018-12-08T15:37:45.261Z,11.73
2018-12-08T15:40:19.832Z,11.27
2018-12-08T15:42:55.170Z,12.73
2018-12-08T15:45:30.219Z,9.53
2018-12-08T15:48:05.319Z,9.63
2018-12-08T15:50:39.938Z,11.10
2018-12-08T15:53:12.533Z,9.27
2018-12-08T15:55:44.501Z,7.03
2018-12-08T15:58:19.230Z,6.80
2018-12-08T16:00:53.971Z,6.80
2018-12-08T16:03:29.078Z,5.90
2018-12-08T16:06:07.820Z,6.53
2018-12-08T16:08:42.829Z,6.27
2018-12-08T16:11:15.143Z,6.33
2018-12-08T16:13:47.128Z,6.93
2018-12-08T16:16:19.281Z,6.83
2018-12-08T16:18:58.384Z,7.03
2018-12-08T16:21:34.162Z,7.50
2018-12-08T16:24:10.357Z,8.27
2018-12-08T16:26:46.465Z,7.87
2018-12-08T16:29:21.727Z,8.97
2018-12-08T16:31:56.728Z,9.27
2018-12-08T16:34:31.589Z,11.33
2018-12-08T16:37:07.539Z,10.97
2018-12-08T16:39:43.641Z,12.67
2018-12-08T16:42:18.673Z,10.90
2018-12-08T16:44:53.846Z,9.43
2018-12-08T16:47:26.257Z,9.17
2018-12-08T16:49:58.232Z,10.03
2018-12-08T16:52:31.518Z,10.87
2018-12-08T16:55:06.962Z,10.90
2018-12-08T16:57:41.567Z,11.00
2018-12-08T17:00:16.595Z,10.00
2018-12-08T17:02:52.081Z,11.20
2018-12-08T17:05:24.837Z,11.60
2018-12-08T17:07:57.455Z,12.30
2018-12-08T17:10:29.607Z,11.43
2018-12-08T17:13:01.715Z,11.27
2018-12-08T17:15:33.719Z,11.50
2018-12-08T17:18:08.778Z,11.20
2018-12-08T17:20:40.939Z,10.90
2018-12-08T17:23:15.529Z,12.10
2018-12-08T17:25:52.988Z,12.13
2018-12-08T17:28:27.921Z,12.03
2018-12-08T17:31:02.923Z,12.23
2018-12-08T17:33:38.152Z,12.03
2018-12-08T17:36:13.592Z,12.73
2018-12-08T17:38:54.936Z,12.10
2018-12-08T17:41:30.325Z,13.23
2018-12-08T17:44:03.615Z,12.60
2018-12-08T17:46:39.690Z,12.53
2018-12-08T17:49:16.789Z,12.50
2018-12-08T17:51:51.346Z,14.20
2018-12-08T17:54:28.339Z,12.27
2018-12-08T17:57:01.518Z,13.00
2018-12-08T17:59:38.584Z,13.43
2018-12-08T18:02:12.453Z,13.23
2018-12-08T18:04:48.542Z,12.90
2018-12-08T18:07:23.905Z,13.13
2018-12-08T18:13:06.227Z,12.73
2018-12-08T18:15:40.954Z,13.50
2018-12-08T18:18:15.966Z,14.73
2018-12-08T18:20:52.883Z,15.87
2018-12-08T18:23:28.567Z,15.53
2018-12-08T18:26:03.632Z,14.93
2018-12-08T18:28:47.707Z,14.50
2018-12-08T18:31:29.399Z,14.20
2018-12-08T18:34:04.531Z,15.20
2018-12-08T18:36:37.265Z,14.93
2018-12-08T18:39:13.639Z,14.00
2018-12-08T18:41:48.712Z,15.30
2018-12-08T18:44:25.834Z,14.03
2018-12-08T18:47:01.130Z,14.60
2018-12-08T18:49:33.612Z,13.00
2018-12-08T18:52:08.540Z,12.73
2018-12-08T18:57:45.633Z,12.47
2018-12-08T19:00:20.608Z,12.97
2018-12-08T19:02:56.027Z,12.27
2018-12-08T19:05:34.622Z,12.67
2018-12-08T19:08:09.679Z,12.60
2018-12-08T19:10:42.604Z,11.77
2018-12-08T19:13:15.974Z,11.00
2018-12-08T19:15:51.784Z,10.00
2018-12-08T19:18:24.620Z,9.73
2018-12-08T19:21:00.065Z,9.93
2018-12-08T19:23:33.976Z,11.43
2018-12-08T19:26:06.384Z,11.57
2018-12-08T19:28:38.448Z,10.70
2018-12-08T19:31:10.457Z,9.87
2018-12-08T19:33:45.535Z,9.23
2018-12-08T19:36:20.385Z,8.83
2018-12-08T19:38:55.321Z,9.30
2018-12-08T19:41:27.691Z,9.27
2018-12-08T19:43:59.841Z,9.30
2018-12-08T19:46:34.783Z,10.60
2018-12-08T19:49:11.597Z,12.53
2018-12-08T19:51:44.446Z,13.33
2018-12-08T19:54:17.302Z,12.37
2018-12-08T19:56:49.154Z,12.90
2018-12-08T19:59:21.353Z,14.20
2018-12-08T20:01:53.526Z,13.00
2018-12-08T20:04:25.644Z,12.70
2018-12-08T20:06:58.638Z,12.67
2018-12-08T20:09:40.843Z,11.53
2018-12-08T20:12:18.556Z,7.70
2018-12-08T20:14:50.556Z,7.97
2018-12-08T20:17:23.297Z,6.97
2018-12-08T20:19:56.520Z,6.30
2018-12-08T20:22:28.678Z,7.10
2018-12-08T20:25:01.802Z,5.50
2018-12-08T20:27:35.124Z,5.50
2018-12-08T20:30:09.003Z,6.00
2018-12-08T20:32:41.833Z,5.17
2018-12-08T20:35:18.381Z,5.47
2018-12-08T20:37:52.950Z,5.80
2018-12-08T20:40:25.109Z,5.13
2018-12-08T20:42:57.371Z,6.03
2018-12-08T20:45:29.519Z,5.83
2018-12-08T20:48:02.882Z,6.70
2018-12-08T20:50:39.298Z,6.60
2018-12-08T20:53:12.183Z,5.97
2018-12-08T20:55:44.688Z,6.13
2018-12-08T20:58:17.329Z,7.80
2018-12-08T21:00:49.906Z,7.80
2018-12-08T21:03:24.790Z,7.73
2018-12-08T21:05:59.846Z,6.63
2018-12-08T21:08:34.764Z,7.27
2018-12-08T21:11:07.085Z,7.60
2018-12-08T21:13:38.943Z,6.67
2018-12-08T21:16:13.742Z,7.00
2018-12-08T21:18:47.191Z,7.40
2018-12-08T21:21:19.278Z,6.80
2018-12-08T21:23:51.285Z,7.47
2018-12-08T21:26:26.466Z,8.23
2018-12-08T21:28:58.365Z,7.27
2018-12-08T21:31:30.570Z,7.67
2018-12-08T21:34:05.327Z,7.43
2018-12-08T21:36:38.037Z,7.40
2018-12-08T21:39:10.046Z,7.97
2018-12-08T21:41:44.914Z,9.17
2018-12-08T21:44:20.199Z,10.73
2018-12-08T21:46:52.589Z,9.87
2018-12-08T21:49:24.801Z,10.23
2018-12-08T21:51:56.720Z,9.23
2018-12-08T21:54:28.655Z,12.30
2018-12-08T21:57:00.838Z,12.90
2018-12-08T21:59:33.537Z,12.37
2018-12-08T22:02:08.143Z,12.00
2018-12-08T22:04:43.081Z,12.00
2018-12-08T22:07:18.354Z,12.20
2018-12-08T22:09:50.583Z,12.10
2018-12-08T22:12:26.394Z,11.97
2018-12-08T22:14:58.884Z,12.23
2018-12-08T22:17:36.307Z,12.60
2018-12-08T22:20:08.595Z,12.23
2018-12-08T22:22:49.548Z,11.50
2018-12-08T22:25:21.809Z,12.47
2018-12-08T22:28:00.541Z,12.37
2018-12-08T22:30:35.672Z,11.87
2018-12-08T22:33:08.021Z,12.13
2018-12-08T22:35:43.566Z,11.60
2018-12-08T22:38:18.750Z,11.13
2018-12-08T22:40:50.785Z,10.43
2018-12-08T22:43:23.036Z,10.00
2018-12-08T22:45:57.738Z,9.23
2018-12-08T23:01:25.443Z,12.60
2018-12-08T23:04:00.576Z,11.27
2018-12-08T23:06:32.748Z,11.33
2018-12-08T23:09:06.330Z,11.63
2018-12-08T23:11:40.132Z,12.60
2018-12-08T23:14:14.981Z,11.73
2018-12-08T23:16:50.094Z,13.20
2018-12-08T23:19:25.309Z,12.70
2018-12-08T23:22:00.390Z,12.73
2018-12-08T23:24:32.499Z,13.33
2018-12-08T23:27:07.154Z,12.60
2018-12-08T23:29:42.294Z,14.00
2018-12-08T23:32:14.535Z,13.83
2018-12-08T23:34:47.690Z,13.63
2018-12-08T23:37:23.202Z,12.17
2018-12-08T23:40:05.094Z,13.03
2018-12-08T23:42:40.506Z,13.30
2018-12-08T23:45:15.856Z,13.47
2018-12-08T23:47:50.603Z,10.73
2018-12-08T23:50:22.539Z,9.83
2018-12-08T23:52:54.568Z,8.60
2018-12-08T23:55:26.867Z,8.43
2018-12-08T23:57:58.984Z,8.67
